Time;durP1;ratioP1;P1;durP2;ratioP2;P2;SDS_P1;SDS_P2;PMS_P1;PMS_P2;Temp;Humidity;BMP_temperature;BMP_pressure;BME280_temperature;BME280_humidity;BME280_pressure;Samples;Min_cycle;Max_cycle;Signal;HPM_P1;HPM_P2
2021/11/15 00:00:30;;;;;;;37.45;12.93;;;;;;;6.81;49.96;102941.25;5021564;28;20171;-70
2021/11/15 00:02:56;;;;;;;43.25;12.63;;;;;;;6.74;50.34;102931.66;5020895;28;20057;-68
2021/11/15 00:05:22;;;;;;;46.10;13.70;;;;;;;6.73;50.24;102942.94;5006304;28;20037;-68
2021/11/15 00:07:47;;;;;;;39.42;13.32;;;;;;;6.75;50.10;102929.94;5021301;28;20040;-68
2021/11/15 00:10:16;;;;;;;45.33;14.32;;;;;;;6.82;49.79;102931.72;5023257;28;20156;-69
2021/11/15 00:12:45;;;;;;;36.97;13.32;;;;;;;6.70;50.01;102942.88;5020307;28;20040;-68
2021/11/15 00:15:11;;;;;;;51.20;15.20;;;;;;;6.91;49.77;102930.09;5021977;28;20041;-69
2021/11/15 00:17:37;;;;;;;39.80;13.95;;;;;;;6.83;49.86;102928.28;5022877;28;20516;-68
2021/11/15 00:20:04;;;;;;;34.10;11.85;;;;;;;6.48;50.42;102926.22;4999684;28;20033;-68
2021/11/15 00:22:29;;;;;;;37.42;10.38;;;;;;;6.77;49.84;102920.41;4995509;28;20088;-69
2021/11/15 00:24:55;;;;;;;33.30;10.25;;;;;;;6.83;49.46;102912.69;4983717;28;20092;-68
2021/11/15 00:27:20;;;;;;;31.67;10.50;;;;;;;6.83;49.55;102918.75;4988985;28;20541;-70
2021/11/15 00:29:48;;;;;;;32.45;10.10;;;;;;;6.61;49.85;102911.63;5001894;28;20033;-68
2021/11/15 00:32:14;;;;;;;30.55;9.15;;;;;;;6.54;50.07;102902.91;5000340;28;20034;-68
2021/11/15 00:34:39;;;;;;;36.28;11.00;;;;;;;6.61;49.92;102903.81;4997753;28;20570;-70
2021/11/15 00:37:05;;;;;;;36.08;11.50;;;;;;;6.66;50.18;102904.72;5000076;28;20053;-69
2021/11/15 00:39:30;;;;;;;36.75;12.13;;;;;;;6.74;49.62;102903.06;5000053;28;20069;-67
2021/11/15 00:41:56;;;;;;;34.10;11.70;;;;;;;6.67;50.06;102896.09;4998982;28;20061;-69
2021/11/15 00:44:22;;;;;;;35.35;13.40;;;;;;;6.46;50.64;102894.16;4999749;28;20593;-68
2021/11/15 00:46:48;;;;;;;32.58;14.07;;;;;;;6.34;50.82;102894.03;4997658;28;20783;-68
2021/11/15 00:49:14;;;;;;;36.58;13.65;;;;;;;6.46;50.79;102900.25;4999702;28;20025;-68
2021/11/15 00:51:39;;;;;;;37.08;14.43;;;;;;;6.56;50.64;102897.72;5002646;28;20033;-68
2021/11/15 00:54:05;;;;;;;41.17;13.70;;;;;;;6.63;50.20;102902.09;5022580;28;20441;-68
2021/11/15 00:56:30;;;;;;;37.97;13.25;;;;;;;6.55;50.67;102901.16;4988406;28;20041;-74
2021/11/15 00:58:56;;;;;;;39.10;14.32;;;;;;;6.76;50.26;102896.16;5020368;28;20048;-68
2021/11/15 01:01:22;;;;;;;36.45;12.60;;;;;;;6.84;49.87;102898.81;5021444;28;20037;-68
2021/11/15 01:03:48;;;;;;;41.33;15.65;;;;;;;6.91;49.93;102906.69;4986044;28;20053;-68
2021/11/15 01:06:13;;;;;;;38.25;12.27;;;;;;;6.93;50.27;102893.69;4988341;28;20490;-68
2021/11/15 01:08:39;;;;;;;38.17;13.05;;;;;;;6.98;50.00;102901.53;4999065;28;20056;-68
2021/11/15 01:11:05;;;;;;;35.65;13.82;;;;;;;6.75;50.69;102894.41;4985186;28;20212;-68
2021/11/15 01:13:31;;;;;;;40.65;14.88;;;;;;;6.75;50.28;102889.19;4995935;28;20137;-68
2021/11/15 01:15:57;;;;;;;36.65;14.40;;;;;;;6.83;50.54;102892.75;5001643;28;20041;-67
2021/11/15 01:18:23;;;;;;;39.15;14.23;;;;;;;6.82;50.29;102885.81;4990350;28;20045;-68
2021/11/15 01:20:48;;;;;;;43.40;15.68;;;;;;;6.69;50.88;102883.97;5002408;28;20041;-67
2021/11/15 01:23:14;;;;;;;52.35;17.58;;;;;;;6.67;50.57;102891.75;5002908;28;20046;-68
2021/11/15 01:25:41;;;;;;;42.10;14.75;;;;;;;6.69;51.06;102890.03;5002982;28;20485;-68
2021/11/15 01:28:07;;;;;;;49.67;16.58;;;;;;;6.84;50.42;102888.41;4992286;28;20053;-68
2021/11/15 01:30:34;;;;;;;45.17;16.25;;;;;;;6.81;50.15;102884.06;4985476;28;20665;-68
2021/11/15 01:33:00;;;;;;;45.08;16.13;;;;;;;6.79;50.64;102887.50;5011241;28;20047;-68
2021/11/15 01:35:26;;;;;;;48.67;19.13;;;;;;;6.76;50.95;102888.38;5017341;28;20049;-69
2021/11/15 01:37:53;;;;;;;49.05;17.05;;;;;;;6.81;50.62;102886.66;5019101;28;20618;-68
2021/11/15 01:40:21;;;;;;;48.58;16.52;;;;;;;6.56;50.95;102879.53;5000481;28;20406;-68
2021/11/15 01:42:48;;;;;;;38.28;14.60;;;;;;;6.53;51.26;102884.69;5000733;28;20038;-68
2021/11/15 01:45:18;;;;;;;48.63;17.10;;;;;;;6.75;50.27;102878.81;5017781;28;20037;-68
2021/11/15 01:47:44;;;;;;;47.88;18.90;;;;;;;6.57;50.88;102883.84;5017651;28;20609;-68
2021/11/15 01:50:15;;;;;;;52.05;18.45;;;;;;;6.48;51.18;102885.53;5005960;28;20091;-68
2021/11/15 01:52:41;;;;;;;46.67;16.48;;;;;;;6.34;51.50;102876.72;5001130;28;20052;-68
2021/11/15 01:55:07;;;;;;;47.22;17.15;;;;;;;6.55;50.87;102877.78;5019482;28;20044;-69
2021/11/15 01:57:33;;;;;;;51.25;18.88;;;;;;;6.42;51.37;102882.00;4999313;28;20046;-68
2021/11/15 01:59:59;;;;;;;49.13;16.65;;;;;;;6.45;50.85;102874.22;5019832;28;20071;-68
2021/11/15 02:02:26;;;;;;;50.72;16.38;;;;;;;6.32;51.07;102883.63;5002196;28;20061;-68
2021/11/15 02:04:57;;;;;;;51.22;17.50;;;;;;;6.14;51.60;102878.22;5019668;28;20045;-68
2021/11/15 02:07:24;;;;;;;35.83;13.83;;;;;;;6.20;51.25;102880.88;4999773;28;20107;-69
2021/11/15 02:09:50;;;;;;;48.88;18.30;;;;;;;6.21;51.32;102874.81;5003530;28;20614;-68
2021/11/15 02:12:16;;;;;;;51.72;16.92;;;;;;;6.29;51.05;102875.81;5019772;28;20045;-68
2021/11/15 02:14:41;;;;;;;44.50;19.05;;;;;;;6.14;51.87;102876.50;5019508;28;20032;-68
2021/11/15 02:17:07;;;;;;;62.80;18.50;;;;;;;6.23;51.25;102873.13;5018149;28;20064;-69
2021/11/15 02:19:33;;;;;;;62.08;20.85;;;;;;;6.16;51.37;102874.78;5000524;28;20048;-68
2021/11/15 02:22:00;;;;;;;51.60;19.45;;;;;;;6.09;51.69;102876.44;5015429;28;20062;-68
2021/11/15 02:24:26;;;;;;;52.60;19.65;;;;;;;6.28;51.28;102881.84;4997811;28;20049;-68
2021/11/15 02:26:52;;;;;;;56.88;20.13;;;;;;;6.22;51.83;102874.84;4985082;28;21099;-69
2021/11/15 02:29:18;;;;;;;60.10;19.60;;;;;;;6.20;51.59;102878.28;4999248;28;20030;-68
2021/11/15 02:31:44;;;;;;;58.17;20.05;;;;;;;6.28;51.46;102868.88;4998125;28;20069;-68
2021/11/15 02:34:10;;;;;;;58.05;19.85;;;;;;;6.29;51.57;102868.03;5001216;28;20623;-68
2021/11/15 02:36:38;;;;;;;56.13;19.10;;;;;;;6.08;52.57;102874.72;4995601;28;20037;-69
2021/11/15 02:39:05;;;;;;;65.38;20.58;;;;;;;6.37;51.63;102866.34;4983687;28;20758;-68
2021/11/15 02:41:31;;;;;;;57.85;17.90;;;;;;;6.30;51.55;102874.94;5000926;28;20113;-68
2021/11/15 02:44:01;;;;;;;57.75;20.35;;;;;;;6.33;51.37;102880.19;4981189;28;20060;-69
2021/11/15 02:46:28;;;;;;;51.38;17.38;;;;;;;6.37;51.78;102878.47;4974785;28;20077;-69
2021/11/15 02:48:55;;;;;;;58.35;19.05;;;;;;;6.33;51.79;102879.28;4995854;28;20048;-68
2021/11/15 02:51:21;;;;;;;48.47;17.75;;;;;;;6.36;51.15;102874.16;5001348;28;20030;-68
2021/11/15 02:53:47;;;;;;;56.85;20.15;;;;;;;6.39;51.69;102875.03;4983066;28;20128;-68
2021/11/15 02:56:12;;;;;;;60.50;19.60;;;;;;;6.26;51.59;102874.03;5000018;28;20044;-69
2021/11/15 02:58:39;;;;;;;55.35;18.13;;;;;;;6.09;51.86;102866.06;4997944;28;20044;-69
2021/11/15 03:01:12;;;;;;;71.60;20.83;;;;;;;6.13;51.82;102879.06;5017535;28;20037;-68
2021/11/15 03:03:39;;;;;;;61.67;19.38;;;;;;;6.01;51.90;102877.22;4999277;28;20095;-68
2021/11/15 03:06:05;;;;;;;59.03;17.45;;;;;;;5.75;52.15;102879.47;5019784;28;20073;-69
2021/11/15 03:08:31;;;;;;;59.15;19.77;;;;;;;6.04;51.53;102878.13;4974396;28;20130;-68
2021/11/15 03:11:00;;;;;;;52.50;17.23;;;;;;;5.95;51.81;102883.22;4994950;28;20059;-69
2021/11/15 03:13:33;;;;;;;54.95;18.45;;;;;;;5.99;51.82;102874.59;5021886;28;20060;-68
2021/11/15 03:16:00;;;;;;;49.50;16.10;;;;;;;6.06;51.14;102879.00;5022586;28;20025;-69
2021/11/15 03:18:33;;;;;;;47.33;17.70;;;;;;;5.88;51.54;102881.38;5004691;28;20045;-68
2021/11/15 03:21:04;;;;;;;55.45;18.08;;;;;;;5.86;51.07;102875.31;5019911;28;20795;-68
2021/11/15 03:23:32;;;;;;;53.67;17.03;;;;;;;5.70;51.36;102873.38;5022371;28;20636;-69
2021/11/15 03:25:58;;;;;;;51.10;16.63;;;;;;;5.46;51.79;102872.22;5022256;28;20304;-68
2021/11/15 03:28:26;;;;;;;56.05;17.38;;;;;;;5.85;50.92;102873.56;5021231;28;20033;-68
2021/11/15 03:30:58;;;;;;;47.33;15.80;;;;;;;5.80;50.98;102870.06;5023061;28;20037;-69
2021/11/15 03:33:27;;;;;;;47.63;14.35;;;;;;;5.84;50.26;102869.25;5022440;28;20049;-69
2021/11/15 03:35:53;;;;;;;47.17;15.23;;;;;;;5.86;50.10;102867.53;5005266;28;20029;-69
2021/11/15 03:38:18;;;;;;;49.88;15.60;;;;;;;5.81;50.58;102875.25;5019659;28;20045;-68
2021/11/15 03:40:44;;;;;;;38.00;12.18;;;;;;;5.94;50.00;102875.41;5021687;28;20041;-69
2021/11/15 03:43:10;;;;;;;46.65;13.27;;;;;;;5.84;50.03;102875.28;5004884;28;20045;-68
2021/11/15 03:45:37;;;;;;;37.70;13.32;;;;;;;5.92;49.61;102877.09;5004120;28;20029;-68
2021/11/15 03:48:05;;;;;;;35.83;12.40;;;;;;;5.98;49.60;102872.84;5003958;28;20033;-68
2021/11/15 03:50:30;;;;;;;35.42;11.65;;;;;;;5.84;49.57;102864.91;5020016;28;20041;-69
2021/11/15 03:52:58;;;;;;;33.33;10.52;;;;;;;5.63;50.60;102865.50;5021513;28;20418;-68
2021/11/15 03:55:24;;;;;;;37.85;11.57;;;;;;;5.88;49.67;102860.63;5003765;28;20044;-69
2021/11/15 03:57:50;;;;;;;37.45;11.85;;;;;;;5.80;50.07;102867.47;5003751;28;20046;-68
2021/11/15 04:00:20;;;;;;;30.67;8.57;;;;;;;5.73;49.97;102865.66;5021505;28;20029;-68
2021/11/15 04:02:50;;;;;;;26.75;9.25;;;;;;;5.67;50.25;102864.69;5022485;28;20076;-68
2021/11/15 04:05:26;;;;;;;26.48;9.32;;;;;;;5.79;50.11;102866.59;5021095;28;20029;-68
2021/11/15 04:07:52;;;;;;;29.63;9.13;;;;;;;5.69;50.14;102864.72;5017688;28;20037;-68
2021/11/15 04:10:25;;;;;;;28.73;10.82;;;;;;;5.75;49.85;102859.63;5022811;28;20041;-68
2021/11/15 04:12:52;;;;;;;32.78;9.65;;;;;;;5.81;50.07;102853.63;5020287;28;20036;-68
2021/11/15 04:15:18;;;;;;;32.33;9.35;;;;;;;5.79;50.02;102860.50;5019583;28;20128;-68
2021/11/15 04:17:45;;;;;;;28.08;9.82;;;;;;;5.33;51.04;102867.72;5004898;28;20435;-69
2021/11/15 04:20:15;;;;;;;31.58;9.75;;;;;;;5.62;50.31;102857.72;5004118;28;20033;-68
2021/11/15 04:22:41;;;;;;;27.90;9.70;;;;;;;5.59;50.43;102843.00;5018636;28;20059;-68
2021/11/15 04:25:08;;;;;;;29.52;9.40;;;;;;;5.30;51.32;102850.41;5019359;28;20045;-68
2021/11/15 04:27:34;;;;;;;22.05;8.82;;;;;;;5.42;50.80;102845.38;4997554;28;20049;-69
2021/11/15 04:30:00;;;;;;;27.10;8.70;;;;;;;5.34;51.03;102840.94;5022743;28;20041;-69
2021/11/15 04:32:25;;;;;;;27.13;8.65;;;;;;;4.83;51.80;102835.88;5004073;28;20486;-69
2021/11/15 04:34:52;;;;;;;25.58;7.93;;;;;;;4.94;51.66;102840.34;5021610;28;20044;-69
2021/11/15 04:37:18;;;;;;;25.45;8.05;;;;;;;5.05;51.71;102838.78;5018868;28;20042;-69
2021/11/15 04:42:16;;;;;;;24.38;7.60;;;;;;;5.30;50.66;102844.31;4994250;28;20038;-69
2021/11/15 04:44:42;;;;;;;21.48;6.25;;;;;;;5.31;51.10;102846.09;4982829;28;20041;-67
2021/11/15 04:47:08;;;;;;;24.05;7.90;;;;;;;5.11;51.66;102849.25;4982563;28;20033;-68
2021/11/15 04:49:33;;;;;;;29.33;7.65;;;;;;;5.31;51.15;102843.50;4971746;28;20038;-69
2021/11/15 04:51:59;;;;;;;24.25;6.93;;;;;;;5.25;51.25;102852.91;4966694;28;20078;-66
2021/11/15 04:54:24;;;;;;;25.92;6.95;;;;;;;4.79;52.46;102849.63;4967786;28;20053;-66
2021/11/15 04:56:50;;;;;;;28.27;7.38;;;;;;;5.10;51.63;102852.72;4966259;28;20062;-67
2021/11/15 04:59:16;;;;;;;31.45;7.75;;;;;;;5.27;51.25;102849.47;4970479;28;20534;-66
2021/11/15 05:01:41;;;;;;;22.10;7.30;;;;;;;4.79;52.42;102861.72;4968437;28;20081;-66
2021/11/15 05:04:07;;;;;;;22.08;7.45;;;;;;;5.12;51.72;102861.34;4986596;28;20026;-66
2021/11/15 05:06:33;;;;;;;25.05;7.72;;;;;;;5.21;51.26;102865.81;4985941;28;20030;-67
2021/11/15 05:08:59;;;;;;;26.65;8.25;;;;;;;5.32;51.35;102858.19;4987796;28;20030;-66
2021/11/15 05:11:25;;;;;;;26.35;8.52;;;;;;;5.36;51.08;102862.56;4986218;28;20038;-66
2021/11/15 05:13:50;;;;;;;31.15;10.65;;;;;;;5.11;51.51;102862.22;4987548;28;20038;-67
2021/11/15 05:16:16;;;;;;;26.20;8.60;;;;;;;5.19;51.28;102863.22;5001988;28;20034;-68
2021/11/15 05:18:42;;;;;;;33.03;10.57;;;;;;;5.21;51.81;102866.69;4986105;28;20394;-68
2021/11/15 05:21:08;;;;;;;28.98;9.82;;;;;;;5.20;51.78;102861.50;4986760;28;20494;-68
2021/11/15 05:23:35;;;;;;;33.38;11.73;;;;;;;5.20;51.74;102867.53;4986036;28;20092;-68
2021/11/15 05:26:01;;;;;;;34.92;10.85;;;;;;;5.08;52.00;102864.78;4987352;28;20046;-67
2021/11/15 05:28:26;;;;;;;33.92;9.85;;;;;;;5.09;52.12;102869.09;4985806;28;20287;-67
2021/11/15 05:30:52;;;;;;;37.60;10.32;;;;;;;5.34;51.57;102869.44;4987095;28;20030;-66
2021/11/15 05:33:17;;;;;;;29.17;10.88;;;;;;;5.39;51.59;102872.97;4983907;28;20061;-63
2021/11/15 05:35:43;;;;;;;31.13;10.18;;;;;;;5.10;52.04;102873.44;4985290;28;20041;-65
2021/11/15 05:38:08;;;;;;;34.50;10.23;;;;;;;5.32;51.93;102878.94;4971125;28;20049;-64
2021/11/15 05:40:34;;;;;;;32.42;9.68;;;;;;;5.37;51.83;102874.66;4987577;28;20069;-65
2021/11/15 05:42:59;;;;;;;18.05;7.60;;;;;;;4.95;52.77;102860.25;5000410;28;20038;-64
2021/11/15 05:45:26;;;;;;;28.83;10.18;;;;;;;4.82;53.23;102883.34;4985473;28;20038;-64
2021/11/15 05:47:53;;;;;;;31.75;9.13;;;;;;;4.86;52.85;102878.22;4985430;28;20046;-65
2021/11/15 05:50:20;;;;;;;30.30;7.82;;;;;;;4.84;53.15;102878.19;4984896;28;20124;-65
2021/11/15 05:52:47;;;;;;;20.73;7.15;;;;;;;5.08;52.71;102879.44;4985655;28;20038;-66
2021/11/15 05:55:16;;;;;;;25.05;7.88;;;;;;;4.89;52.91;102883.47;4986019;28;20053;-66
2021/11/15 05:57:42;;;;;;;24.55;7.88;;;;;;;4.75;52.84;102881.50;4991369;28;20034;-66
2021/11/15 06:00:11;;;;;;;23.13;6.45;;;;;;;4.88;52.92;102876.53;4985615;28;20030;-66
2021/11/15 06:02:37;;;;;;;30.63;8.57;;;;;;;5.05;52.32;102880.25;4983825;28;20046;-65
2021/11/15 06:05:04;;;;;;;22.02;7.60;;;;;;;5.00;52.77;102876.75;4986162;28;20187;-66
2021/11/15 06:07:30;;;;;;;23.13;7.88;;;;;;;4.77;52.95;102874.63;4983923;28;20423;-67
2021/11/15 06:09:55;;;;;;;24.25;8.98;;;;;;;4.88;52.64;102871.34;4986544;28;20031;-66
2021/11/15 06:12:21;;;;;;;20.33;8.70;;;;;;;4.90;52.47;102874.84;4984193;28;20474;-65
2021/11/15 06:14:46;;;;;;;21.95;7.10;;;;;;;4.77;53.03;102878.94;4987063;28;20434;-65
2021/11/15 06:17:12;;;;;;;26.40;7.97;;;;;;;5.17;52.45;102885.66;4983966;28;20031;-66
2021/11/15 06:19:37;;;;;;;20.33;7.05;;;;;;;4.94;52.72;102887.00;5000407;28;20798;-68
2021/11/15 06:22:03;;;;;;;26.30;7.80;;;;;;;5.10;52.29;102888.09;4984431;28;20042;-67
2021/11/15 06:24:29;;;;;;;25.40;8.63;;;;;;;5.15;52.17;102892.53;4984867;28;20038;-66
2021/11/15 06:26:54;;;;;;;22.20;7.28;;;;;;;5.06;52.44;102892.41;4985374;28;20046;-65
2021/11/15 06:29:20;;;;;;;22.00;7.13;;;;;;;5.31;51.65;102893.63;4984826;28;20041;-66
2021/11/15 06:31:46;;;;;;;29.73;7.10;;;;;;;5.12;52.42;102895.06;4987283;28;20064;-66
2021/11/15 06:34:11;;;;;;;22.90;8.15;;;;;;;5.01;52.39;102899.19;4984968;28;20030;-66
2021/11/15 06:36:37;;;;;;;22.38;7.13;;;;;;;4.95;52.55;102892.22;4985482;28;20061;-67
2021/11/15 06:39:03;;;;;;;23.50;8.48;;;;;;;5.29;51.60;102899.63;5001754;28;20026;-71
2021/11/15 06:41:29;;;;;;;24.92;7.97;;;;;;;5.25;51.90;102909.09;4984149;28;20034;-67
2021/11/15 06:43:56;;;;;;;23.58;9.07;;;;;;;4.97;52.14;102911.25;4988097;28;20041;-66
2021/11/15 06:46:22;;;;;;;31.23;10.15;;;;;;;4.91;52.42;102902.50;5002942;28;20034;-66
2021/11/15 06:48:48;;;;;;;27.75;8.27;;;;;;;5.03;51.97;102907.88;4988867;28;20038;-66
2021/11/15 06:51:13;;;;;;;27.45;8.07;;;;;;;5.14;51.94;102905.47;4990726;28;20121;-66
2021/11/15 06:53:40;;;;;;;33.65;10.82;;;;;;;5.10;51.90;102904.56;5003766;28;20442;-66
2021/11/15 06:56:07;;;;;;;48.20;12.85;;;;;;;5.32;51.44;102910.03;4990213;28;20070;-66
2021/11/15 06:58:34;;;;;;;40.92;11.52;;;;;;;5.38;51.35;102910.13;4990460;28;20069;-66
2021/11/15 07:01:00;;;;;;;33.83;11.23;;;;;;;5.25;51.41;102912.53;4992435;28;20118;-67
2021/11/15 07:03:26;;;;;;;44.13;13.52;;;;;;;5.22;51.57;102915.09;4988898;28;20118;-67
2021/11/15 07:05:52;;;;;;;38.35;14.68;;;;;;;5.06;51.46;102910.53;4993084;28;20117;-65
2021/11/15 07:08:18;;;;;;;48.40;13.88;;;;;;;5.17;51.04;102915.91;5013764;28;20067;-66
2021/11/15 07:10:44;;;;;;;48.20;14.63;;;;;;;5.15;51.32;102921.03;5003083;28;20038;-70
2021/11/15 07:13:12;;;;;;;58.17;14.65;;;;;;;5.24;50.48;102928.09;4995167;28;20109;-69
2021/11/15 07:15:38;;;;;;;49.03;15.80;;;;;;;5.25;50.35;102929.81;4990296;28;20073;-68
2021/11/15 07:18:03;;;;;;;49.78;17.17;;;;;;;5.41;49.54;102936.09;4989150;28;20455;-69
2021/11/15 07:20:29;;;;;;;51.28;16.92;;;;;;;5.41;50.13;102942.19;4988615;28;20039;-68
2021/11/15 07:22:54;;;;;;;55.60;15.23;;;;;;;5.33;50.07;102942.91;4989258;28;20061;-68
2021/11/15 07:25:23;;;;;;;51.22;15.65;;;;;;;5.31;50.01;102940.28;4991302;28;20034;-67
2021/11/15 07:27:53;;;;;;;65.60;19.55;;;;;;;5.32;49.74;102941.16;4996478;28;20100;-70
2021/11/15 07:30:18;;;;;;;55.38;18.35;;;;;;;5.39;49.95;102943.00;4989027;28;20037;-68
2021/11/15 07:32:45;;;;;;;61.35;17.45;;;;;;;5.29;50.41;102942.00;5003909;28;20495;-67
2021/11/15 07:35:11;;;;;;;52.58;15.15;;;;;;;5.57;50.10;102935.50;4993992;28;20030;-68
2021/11/15 07:37:37;;;;;;;51.63;16.45;;;;;;;5.46;50.33;102939.66;4988540;28;20482;-69
2021/11/15 07:40:05;;;;;;;51.88;16.08;;;;;;;5.48;50.14;102943.16;4988464;28;20030;-70
2021/11/15 07:42:31;;;;;;;51.17;15.35;;;;;;;5.47;50.12;102941.38;4978370;28;20125;-70
2021/11/15 07:44:57;;;;;;;54.13;14.65;;;;;;;5.56;49.87;102941.53;5004091;28;20118;-67
2021/11/15 07:47:23;;;;;;;54.38;16.40;;;;;;;5.50;49.99;102936.22;4987839;28;20133;-66
2021/11/15 07:49:48;;;;;;;57.03;17.90;;;;;;;5.41;49.97;102936.09;4988205;28;20542;-64
2021/11/15 07:52:16;;;;;;;59.85;17.40;;;;;;;5.32;50.54;102935.97;4987273;28;20085;-65
2021/11/15 07:54:42;;;;;;;54.75;16.35;;;;;;;5.17;50.54;102942.69;4986842;28;20117;-64
2021/11/15 07:57:08;;;;;;;71.03;18.65;;;;;;;5.32;50.26;102935.97;5002026;28;20121;-64
2021/11/15 07:59:35;;;;;;;62.45;20.02;;;;;;;5.25;50.01;102935.88;4987653;28;20471;-65
2021/11/15 08:02:00;;;;;;;63.47;18.35;;;;;;;5.15;50.46;102922.78;4987720;28;20153;-64
2021/11/15 08:04:26;;;;;;;58.20;18.55;;;;;;;5.16;50.38;102920.19;4989156;28;20101;-66
2021/11/15 08:06:51;;;;;;;58.30;16.65;;;;;;;5.41;50.00;102920.53;4985788;28;20038;-66
2021/11/15 08:09:17;;;;;;;72.65;20.55;;;;;;;5.42;49.56;102924.91;4995479;28;20034;-66
2021/11/15 08:11:45;;;;;;;59.30;17.15;;;;;;;5.30;49.83;102922.13;4987815;28;20121;-66
2021/11/15 08:14:12;;;;;;;61.30;20.98;;;;;;;5.34;49.53;102927.38;4987765;28;20034;-66
2021/11/15 08:16:37;;;;;;;63.13;21.00;;;;;;;5.25;49.65;102929.81;4986339;28;21422;-65
2021/11/15 08:19:03;;;;;;;58.17;19.98;;;;;;;5.29;49.54;102921.25;4989873;28;20466;-66
2021/11/15 08:21:29;;;;;;;68.63;19.10;;;;;;;5.43;49.65;102922.31;4986844;28;20455;-66
2021/11/15 08:23:55;;;;;;;61.22;20.55;;;;;;;5.50;49.35;102923.25;4987334;28;20045;-66
2021/11/15 08:26:38;;;;;;;77.25;20.85;;;;;;;5.44;49.67;102926.66;4992224;28;20037;-65
2021/11/15 08:29:09;;;;;;;72.18;20.70;;;;;;;5.44;49.91;102915.41;4988377;28;20065;-67
2021/11/15 08:31:37;;;;;;;77.73;21.57;;;;;;;5.08;50.53;102916.63;4988262;28;20112;-66
2021/11/15 08:34:02;;;;;;;79.95;21.63;;;;;;;5.27;49.93;102917.75;4988767;28;20478;-65
2021/11/15 08:36:28;;;;;;;69.53;21.25;;;;;;;5.22;50.10;102917.69;4986607;28;20045;-64
2021/11/15 08:39:05;;;;;;;71.05;19.40;;;;;;;5.33;49.98;102915.25;4988368;28;20026;-65
2021/11/15 08:41:36;;;;;;;72.95;20.00;;;;;;;5.48;49.44;102917.22;4988285;28;20034;-65
2021/11/15 08:44:05;;;;;;;66.90;21.08;;;;;;;5.55;49.16;102910.38;4988199;28;20446;-64
2021/11/15 08:46:32;;;;;;;76.35;21.13;;;;;;;5.33;49.93;102907.47;4988009;28;20042;-65
2021/11/15 08:49:04;;;;;;;55.45;18.90;;;;;;;5.41;49.52;102904.97;4991207;28;20010;-65
2021/11/15 08:51:30;;;;;;;72.47;21.05;;;;;;;5.43;49.52;102905.88;4988764;28;20433;-65
2021/11/15 08:53:58;;;;;;;72.28;21.17;;;;;;;5.61;48.98;102905.25;5002018;28;20142;-64
2021/11/15 08:56:24;;;;;;;59.40;18.77;;;;;;;5.49;48.91;102905.09;5003274;28;20026;-65
2021/11/15 08:58:50;;;;;;;64.13;21.20;;;;;;;5.67;49.18;102906.22;4985965;28;20054;-65
2021/11/15 09:01:17;;;;;;;64.43;21.00;;;;;;;5.65;48.91;102894.94;4986576;28;20034;-64
2021/11/15 09:03:44;;;;;;;67.22;20.48;;;;;;;5.78;48.46;102895.13;4986466;28;20376;-65
2021/11/15 09:06:12;;;;;;;63.08;20.63;;;;;;;5.37;49.53;102900.59;4988586;28;20042;-65
2021/11/15 09:08:39;;;;;;;67.22;20.23;;;;;;;5.47;49.02;102902.50;4981024;28;20722;-65
2021/11/15 09:11:06;;;;;;;71.75;19.55;;;;;;;5.63;48.93;102911.34;5007559;28;20042;-67
2021/11/15 09:13:33;;;;;;;56.05;20.38;;;;;;;5.53;49.63;102909.50;4986714;28;20081;-65
2021/11/15 09:15:59;;;;;;;54.15;18.33;;;;;;;5.45;49.29;102906.78;5002413;28;20054;-64
2021/11/15 09:18:25;;;;;;;66.25;20.27;;;;;;;5.62;48.70;102905.28;4987394;28;20049;-65
2021/11/15 09:20:51;;;;;;;62.17;21.35;;;;;;;5.59;48.94;102894.88;4986379;28;20415;-66
2021/11/15 09:23:17;;;;;;;58.10;20.92;;;;;;;5.54;48.94;102898.25;4983022;28;20039;-65
2021/11/15 09:25:43;;;;;;;65.00;19.98;;;;;;;5.39;48.69;102896.31;4983916;28;20528;-65
2021/11/15 09:28:10;;;;;;;65.97;20.30;;;;;;;5.36;48.88;102904.91;4982351;28;20034;-65
2021/11/15 09:30:37;;;;;;;59.03;20.42;;;;;;;5.45;49.05;102901.59;4981646;28;20076;-64
2021/11/15 09:33:04;;;;;;;58.97;18.90;;;;;;;5.50;48.54;102907.69;4998959;28;20034;-65
2021/11/15 09:35:31;;;;;;;65.47;19.80;;;;;;;5.70;48.17;102907.09;4987429;28;20046;-64
2021/11/15 09:37:57;;;;;;;62.47;19.98;;;;;;;5.70;48.14;102914.88;4982365;28;20049;-64
2021/11/15 09:40:23;;;;;;;60.20;20.27;;;;;;;5.46;48.47;102911.13;4985249;28;20046;-65
2021/11/15 09:42:50;;;;;;;57.88;20.92;;;;;;;5.29;48.43;102917.78;4984987;28;20061;-65
2021/11/15 09:45:17;;;;;;;63.95;20.92;;;;;;;5.49;47.97;102918.94;5001736;28;20145;-66
2021/11/15 09:47:42;;;;;;;58.28;19.60;;;;;;;5.36;47.87;102917.03;4985980;28;20138;-64
2021/11/15 09:50:13;;;;;;;61.53;21.70;;;;;;;5.15;48.06;102922.78;4999006;28;20506;-64
2021/11/15 09:52:39;;;;;;;61.90;22.02;;;;;;;5.13;48.28;102914.97;4983067;28;20058;-65
2021/11/15 09:55:06;;;;;;;57.53;19.95;;;;;;;5.31;47.95;102931.66;4982123;28;20034;-65
2021/11/15 09:57:37;;;;;;;62.35;20.63;;;;;;;5.41;47.54;102926.63;4980465;28;20550;-65
2021/11/15 10:00:08;;;;;;;48.33;17.80;;;;;;;5.60;47.10;102922.56;4984932;28;20042;-66
2021/11/15 10:02:39;;;;;;;60.75;18.83;;;;;;;5.75;46.93;102926.19;4982341;28;20042;-65
2021/11/15 10:05:08;;;;;;;62.65;20.73;;;;;;;5.60;47.60;102914.78;4988607;28;20033;-67
2021/11/15 10:07:49;;;;;;;54.78;18.98;;;;;;;5.66;47.14;102904.50;4984800;28;20050;-65
2021/11/15 10:10:38;;;;;;;59.70;19.38;;;;;;;5.65;47.06;102901.88;4986513;28;20038;-65
2021/11/15 10:13:23;;;;;;;60.08;18.23;;;;;;;5.56;46.96;102904.34;4989900;28;20491;-65
2021/11/15 10:16:03;;;;;;;62.05;20.02;;;;;;;5.61;46.79;102905.25;4978712;28;20060;-64
2021/11/15 10:18:40;;;;;;;57.88;19.63;;;;;;;5.61;46.73;102893.19;4996743;28;20039;-64
2021/11/15 10:21:11;;;;;;;60.83;20.08;;;;;;;5.40;47.33;102896.34;4987684;28;20046;-64
2021/11/15 10:23:47;;;;;;;50.38;19.65;;;;;;;5.40;47.12;102895.47;4985060;28;20188;-65
2021/11/15 10:26:22;;;;;;;53.60;19.33;;;;;;;5.52;46.43;102908.59;4994807;28;20057;-64
2021/11/15 10:28:52;;;;;;;65.78;19.85;;;;;;;5.29;47.05;102897.03;4986192;28;20200;-65
2021/11/15 10:31:35;;;;;;;57.72;17.25;;;;;;;5.44;46.38;102899.88;4988124;28;20026;-65
2021/11/15 10:34:03;;;;;;;50.70;18.17;;;;;;;5.54;46.83;102893.94;4967648;28;20046;-66
2021/11/15 10:36:56;;;;;;;60.30;19.27;;;;;;;5.37;47.08;102892.81;4993761;28;20038;-66
2021/11/15 10:39:54;;;;;;;53.85;18.77;;;;;;;5.37;47.34;102895.41;4984559;28;20134;-65
2021/11/15 10:42:27;;;;;;;55.92;17.75;;;;;;;5.42;46.80;102901.56;4971393;28;20050;-65
2021/11/15 10:45:10;;;;;;;59.53;21.65;;;;;;;5.63;47.30;102888.84;4988559;28;20641;-66
2021/11/15 10:47:43;;;;;;;61.05;21.05;;;;;;;5.56;47.09;102886.19;4992652;28;20054;-65
2021/11/15 10:50:35;;;;;;;79.40;25.17;;;;;;;5.18;47.75;102882.19;4993384;28;20026;-65
2021/11/15 10:53:06;;;;;;;56.92;21.60;;;;;;;4.93;48.01;102885.28;4989815;28;20046;-65
2021/11/15 10:55:36;;;;;;;63.13;21.87;;;;;;;5.13;47.26;102881.25;4988745;28;20035;-66
2021/11/15 10:58:10;;;;;;;60.92;20.75;;;;;;;5.18;47.57;102887.38;4990345;28;20514;-65
2021/11/15 11:00:38;;;;;;;64.32;22.33;;;;;;;5.29;47.30;102879.75;5005899;28;20080;-64
2021/11/15 11:03:09;;;;;;;54.05;18.67;;;;;;;5.48;47.02;102880.91;4990071;28;20092;-64
2021/11/15 11:05:38;;;;;;;55.67;18.38;;;;;;;5.59;46.76;102879.31;4999660;28;20045;-65
2021/11/15 11:08:14;;;;;;;64.38;19.80;;;;;;;5.18;47.46;102882.19;4984610;28;20080;-65
2021/11/15 11:11:13;;;;;;;60.75;20.83;;;;;;;5.50;46.82;102886.94;5000237;28;20121;-66
2021/11/15 11:13:45;;;;;;;50.60;19.25;;;;;;;5.52;46.80;102882.66;4990452;28;20057;-65
2021/11/15 11:16:11;;;;;;;54.38;19.70;;;;;;;5.48;46.56;102891.28;4987886;28;20585;-66
2021/11/15 11:18:40;;;;;;;60.28;22.05;;;;;;;5.63;46.18;102886.25;4999520;28;20042;-64
2021/11/15 11:21:27;;;;;;;56.55;20.35;;;;;;;5.30;46.93;102881.53;5002551;28;20087;-64
2021/11/15 11:26:33;;;;;;;57.25;20.42;;;;;;;5.62;45.99;102876.75;4988077;28;20077;-64